sensor_id;sensor_type;location;lat;lon;timestamp;P1;durP1;ratioP1;P2;durP2;ratioP2
25824;SDS011;13658;44.534;18.694;2023-08-08T00:01:37;11.25;;;8.40;;
25824;SDS011;13658;44.534;18.694;2023-08-08T00:04:04;8.68;;;6.90;;
25824;SDS011;13658;44.534;18.694;2023-08-08T00:06:30;8.45;;;7.60;;
25824;SDS011;13658;44.534;18.694;2023-08-08T00:08:56;8.73;;;7.93;;
25824;SDS011;13658;44.534;18.694;2023-08-08T00:11:21;9.82;;;8.82;;
25824;SDS011;13658;44.534;18.694;2023-08-08T00:13:47;10.48;;;9.27;;
25824;SDS011;13658;44.534;18.694;2023-08-08T00:16:13;9.68;;;8.80;;
25824;SDS011;13658;44.534;18.694;2023-08-08T00:18:39;10.10;;;8.80;;
25824;SDS011;13658;44.534;18.694;2023-08-08T00:21:05;9.48;;;7.40;;
25824;SDS011;13658;44.534;18.694;2023-08-08T00:23:31;8.43;;;6.85;;
25824;SDS011;13658;44.534;18.694;2023-08-08T00:25:57;8.77;;;7.25;;
25824;SDS011;13658;44.534;18.694;2023-08-08T00:28:22;11.27;;;7.57;;
25824;SDS011;13658;44.534;18.694;2023-08-08T00:30:48;9.18;;;7.53;;
25824;SDS011;13658;44.534;18.694;2023-08-08T00:33:14;8.15;;;7.35;;
25824;SDS011;13658;44.534;18.694;2023-08-08T00:35:40;10.50;;;7.60;;
25824;SDS011;13658;44.534;18.694;2023-08-08T00:38:06;8.70;;;7.80;;
25824;SDS011;13658;44.534;18.694;2023-08-08T00:40:32;10.38;;;8.77;;
25824;SDS011;13658;44.534;18.694;2023-08-08T00:42:58;10.35;;;8.80;;
25824;SDS011;13658;44.534;18.694;2023-08-08T00:45:24;12.38;;;8.20;;
25824;SDS011;13658;44.534;18.694;2023-08-08T00:47:50;9.30;;;8.15;;
25824;SDS011;13658;44.534;18.694;2023-08-08T00:50:16;15.77;;;11.55;;
25824;SDS011;13658;44.534;18.694;2023-08-08T00:52:43;16.02;;;10.63;;
25824;SDS011;13658;44.534;18.694;2023-08-08T00:55:10;16.02;;;11.38;;
25824;SDS011;13658;44.534;18.694;2023-08-08T00:57:36;11.10;;;9.40;;
25824;SDS011;13658;44.534;18.694;2023-08-08T01:00:05;13.32;;;11.18;;
25824;SDS011;13658;44.534;18.694;2023-08-08T01:02:32;16.60;;;12.48;;
25824;SDS011;13658;44.534;18.694;2023-08-08T01:04:58;13.13;;;10.32;;
25824;SDS011;13658;44.534;18.694;2023-08-08T01:10:14;8.10;;;6.40;;
25824;SDS011;13658;44.534;18.694;2023-08-08T01:12:46;8.52;;;6.50;;
25824;SDS011;13658;44.534;18.694;2023-08-08T01:15:17;10.30;;;6.60;;
25824;SDS011;13658;44.534;18.694;2023-08-08T01:17:43;11.27;;;7.32;;
25824;SDS011;13658;44.534;18.694;2023-08-08T01:20:11;9.52;;;7.30;;
25824;SDS011;13658;44.534;18.694;2023-08-08T01:25:29;9.75;;;7.50;;
25824;SDS011;13658;44.534;18.694;2023-08-08T01:27:56;9.23;;;7.75;;
25824;SDS011;13658;44.534;18.694;2023-08-08T01:30:22;8.75;;;7.85;;
25824;SDS011;13658;44.534;18.694;2023-08-08T01:32:48;11.75;;;7.55;;
25824;SDS011;13658;44.534;18.694;2023-08-08T01:35:14;8.50;;;7.00;;
25824;SDS011;13658;44.534;18.694;2023-08-08T01:40:11;8.70;;;7.18;;
25824;SDS011;13658;44.534;18.694;2023-08-08T01:42:41;8.30;;;7.10;;
25824;SDS011;13658;44.534;18.694;2023-08-08T01:45:12;8.38;;;7.53;;
25824;SDS011;13658;44.534;18.694;2023-08-08T01:47:38;10.93;;;6.95;;
25824;SDS011;13658;44.534;18.694;2023-08-08T01:50:04;9.18;;;7.35;;
25824;SDS011;13658;44.534;18.694;2023-08-08T01:52:30;9.52;;;7.57;;
25824;SDS011;13658;44.534;18.694;2023-08-08T01:54:56;8.45;;;7.55;;
25824;SDS011;13658;44.534;18.694;2023-08-08T01:57:22;9.65;;;7.63;;
25824;SDS011;13658;44.534;18.694;2023-08-08T01:59:48;10.82;;;7.50;;
25824;SDS011;13658;44.534;18.694;2023-08-08T02:05:08;11.73;;;7.72;;
25824;SDS011;13658;44.534;18.694;2023-08-08T02:07:35;9.63;;;7.28;;
25824;SDS011;13658;44.534;18.694;2023-08-08T02:10:01;8.18;;;7.13;;
25824;SDS011;13658;44.534;18.694;2023-08-08T02:12:26;13.63;;;8.10;;
25824;SDS011;13658;44.534;18.694;2023-08-08T02:14:54;10.13;;;8.88;;
25824;SDS011;13658;44.534;18.694;2023-08-08T02:17:20;12.10;;;9.15;;
25824;SDS011;13658;44.534;18.694;2023-08-08T02:19:46;15.70;;;11.10;;
25824;SDS011;13658;44.534;18.694;2023-08-08T02:22:12;14.35;;;10.82;;
25824;SDS011;13658;44.534;18.694;2023-08-08T02:24:39;16.95;;;11.55;;
25824;SDS011;13658;44.534;18.694;2023-08-08T02:27:04;13.18;;;10.80;;
25824;SDS011;13658;44.534;18.694;2023-08-08T02:29:30;15.85;;;11.80;;
25824;SDS011;13658;44.534;18.694;2023-08-08T02:31:58;15.55;;;11.45;;
25824;SDS011;13658;44.534;18.694;2023-08-08T02:34:25;14.90;;;10.65;;
25824;SDS011;13658;44.534;18.694;2023-08-08T02:36:51;18.13;;;10.43;;
25824;SDS011;13658;44.534;18.694;2023-08-08T02:39:16;16.75;;;11.30;;
25824;SDS011;13658;44.534;18.694;2023-08-08T02:41:43;16.45;;;10.52;;
25824;SDS011;13658;44.534;18.694;2023-08-08T02:44:09;18.48;;;11.00;;
25824;SDS011;13658;44.534;18.694;2023-08-08T02:46:36;20.60;;;10.32;;
25824;SDS011;13658;44.534;18.694;2023-08-08T02:49:03;20.02;;;11.48;;
25824;SDS011;13658;44.534;18.694;2023-08-08T02:51:30;15.80;;;10.45;;
25824;SDS011;13658;44.534;18.694;2023-08-08T02:53:56;17.17;;;11.18;;
25824;SDS011;13658;44.534;18.694;2023-08-08T02:56:22;17.70;;;11.20;;
25824;SDS011;13658;44.534;18.694;2023-08-08T02:58:49;17.98;;;11.18;;
25824;SDS011;13658;44.534;18.694;2023-08-08T03:01:15;20.17;;;10.85;;
25824;SDS011;13658;44.534;18.694;2023-08-08T03:03:42;16.17;;;10.45;;
25824;SDS011;13658;44.534;18.694;2023-08-08T03:06:08;16.27;;;9.98;;
25824;SDS011;13658;44.534;18.694;2023-08-08T03:08:35;15.85;;;10.25;;
25824;SDS011;13658;44.534;18.694;2023-08-08T03:11:03;19.63;;;10.82;;
25824;SDS011;13658;44.534;18.694;2023-08-08T03:13:29;16.08;;;9.70;;
25824;SDS011;13658;44.534;18.694;2023-08-08T03:15:55;18.30;;;11.52;;
25824;SDS011;13658;44.534;18.694;2023-08-08T03:18:22;19.98;;;11.48;;
25824;SDS011;13658;44.534;18.694;2023-08-08T03:20:48;23.33;;;13.73;;
25824;SDS011;13658;44.534;18.694;2023-08-08T03:23:16;31.52;;;14.98;;
25824;SDS011;13658;44.534;18.694;2023-08-08T03:25:42;28.40;;;15.70;;
25824;SDS011;13658;44.534;18.694;2023-08-08T03:28:08;37.13;;;18.27;;
25824;SDS011;13658;44.534;18.694;2023-08-08T03:30:35;34.78;;;16.98;;
25824;SDS011;13658;44.534;18.694;2023-08-08T03:33:05;34.40;;;17.13;;
25824;SDS011;13658;44.534;18.694;2023-08-08T03:35:31;25.75;;;13.93;;
25824;SDS011;13658;44.534;18.694;2023-08-08T03:37:56;23.70;;;14.25;;
25824;SDS011;13658;44.534;18.694;2023-08-08T03:40:23;26.73;;;14.90;;
25824;SDS011;13658;44.534;18.694;2023-08-08T03:42:49;25.23;;;14.50;;
25824;SDS011;13658;44.534;18.694;2023-08-08T03:45:14;29.58;;;16.08;;
25824;SDS011;13658;44.534;18.694;2023-08-08T03:47:40;27.17;;;16.63;;
25824;SDS011;13658;44.534;18.694;2023-08-08T03:50:07;31.52;;;17.98;;
25824;SDS011;13658;44.534;18.694;2023-08-08T03:52:34;33.58;;;19.23;;
25824;SDS011;13658;44.534;18.694;2023-08-08T03:55:02;29.75;;;18.55;;
25824;SDS011;13658;44.534;18.694;2023-08-08T03:57:29;34.45;;;20.50;;
25824;SDS011;13658;44.534;18.694;2023-08-08T03:59:56;34.83;;;18.40;;
25824;SDS011;13658;44.534;18.694;2023-08-08T04:02:22;29.77;;;16.05;;
25824;SDS011;13658;44.534;18.694;2023-08-08T04:04:47;32.83;;;15.65;;
25824;SDS011;13658;44.534;18.694;2023-08-08T04:07:13;32.45;;;16.42;;
25824;SDS011;13658;44.534;18.694;2023-08-08T04:09:39;29.75;;;15.05;;
25824;SDS011;13658;44.534;18.694;2023-08-08T04:12:06;27.02;;;14.05;;
25824;SDS011;13658;44.534;18.694;2023-08-08T04:14:32;28.58;;;14.38;;
25824;SDS011;13658;44.534;18.694;2023-08-08T04:16:58;25.70;;;13.52;;
25824;SDS011;13658;44.534;18.694;2023-08-08T04:19:23;24.27;;;13.57;;
25824;SDS011;13658;44.534;18.694;2023-08-08T04:21:49;26.70;;;14.43;;
25824;SDS011;13658;44.534;18.694;2023-08-08T04:24:15;26.83;;;13.82;;
25824;SDS011;13658;44.534;18.694;2023-08-08T04:26:41;27.02;;;14.40;;
25824;SDS011;13658;44.534;18.694;2023-08-08T04:29:07;29.38;;;14.75;;
25824;SDS011;13658;44.534;18.694;2023-08-08T04:31:33;27.30;;;16.77;;
25824;SDS011;13658;44.534;18.694;2023-08-08T04:33:59;37.38;;;17.60;;
25824;SDS011;13658;44.534;18.694;2023-08-08T04:36:29;30.40;;;19.00;;
25824;SDS011;13658;44.534;18.694;2023-08-08T04:38:55;28.95;;;16.38;;
25824;SDS011;13658;44.534;18.694;2023-08-08T04:41:21;22.58;;;14.10;;
25824;SDS011;13658;44.534;18.694;2023-08-08T04:43:47;22.02;;;14.02;;
25824;SDS011;13658;44.534;18.694;2023-08-08T04:46:13;24.75;;;14.98;;
25824;SDS011;13658;44.534;18.694;2023-08-08T04:48:39;26.08;;;16.88;;
25824;SDS011;13658;44.534;18.694;2023-08-08T04:51:05;26.85;;;15.85;;
25824;SDS011;13658;44.534;18.694;2023-08-08T04:53:31;27.65;;;16.15;;
25824;SDS011;13658;44.534;18.694;2023-08-08T04:55:57;30.90;;;18.00;;
25824;SDS011;13658;44.534;18.694;2023-08-08T04:58:23;29.73;;;17.98;;
25824;SDS011;13658;44.534;18.694;2023-08-08T05:00:49;26.67;;;17.08;;
25824;SDS011;13658;44.534;18.694;2023-08-08T05:03:20;31.38;;;17.73;;
25824;SDS011;13658;44.534;18.694;2023-08-08T05:05:46;27.92;;;16.70;;
25824;SDS011;13658;44.534;18.694;2023-08-08T05:08:12;30.70;;;16.25;;
25824;SDS011;13658;44.534;18.694;2023-08-08T05:10:39;28.33;;;17.05;;
25824;SDS011;13658;44.534;18.694;2023-08-08T05:13:05;28.38;;;17.00;;
25824;SDS011;13658;44.534;18.694;2023-08-08T05:15:31;34.72;;;19.20;;
25824;SDS011;13658;44.534;18.694;2023-08-08T05:17:57;29.73;;;17.98;;
25824;SDS011;13658;44.534;18.694;2023-08-08T05:20:24;31.77;;;19.85;;
25824;SDS011;13658;44.534;18.694;2023-08-08T05:22:50;32.03;;;17.73;;
25824;SDS011;13658;44.534;18.694;2023-08-08T05:25:16;33.97;;;20.92;;
25824;SDS011;13658;44.534;18.694;2023-08-08T05:27:42;34.47;;;21.65;;
25824;SDS011;13658;44.534;18.694;2023-08-08T05:30:08;30.10;;;17.80;;
25824;SDS011;13658;44.534;18.694;2023-08-08T05:32:34;34.10;;;17.73;;
25824;SDS011;13658;44.534;18.694;2023-08-08T05:35:00;30.17;;;18.08;;
25824;SDS011;13658;44.534;18.694;2023-08-08T05:37:29;32.83;;;19.50;;
25824;SDS011;13658;44.534;18.694;2023-08-08T05:39:55;34.13;;;20.75;;
25824;SDS011;13658;44.534;18.694;2023-08-08T05:42:21;29.33;;;18.25;;
25824;SDS011;13658;44.534;18.694;2023-08-08T05:44:47;29.67;;;17.60;;
25824;SDS011;13658;44.534;18.694;2023-08-08T05:47:13;27.42;;;18.23;;
25824;SDS011;13658;44.534;18.694;2023-08-08T05:49:39;26.48;;;18.15;;
25824;SDS011;13658;44.534;18.694;2023-08-08T05:52:07;27.67;;;17.65;;
25824;SDS011;13658;44.534;18.694;2023-08-08T05:54:34;27.33;;;18.30;;
25824;SDS011;13658;44.534;18.694;2023-08-08T05:57:00;27.40;;;16.88;;
25824;SDS011;13658;44.534;18.694;2023-08-08T05:59:26;24.40;;;17.05;;
25824;SDS011;13658;44.534;18.694;2023-08-08T06:01:52;29.17;;;17.42;;
25824;SDS011;13658;44.534;18.694;2023-08-08T06:04:18;30.23;;;17.55;;
25824;SDS011;13658;44.534;18.694;2023-08-08T06:06:44;27.92;;;19.35;;
25824;SDS011;13658;44.534;18.694;2023-08-08T06:09:10;24.27;;;16.95;;
25824;SDS011;13658;44.534;18.694;2023-08-08T06:11:36;27.17;;;17.55;;
25824;SDS011;13658;44.534;18.694;2023-08-08T06:14:02;23.25;;;16.23;;
25824;SDS011;13658;44.534;18.694;2023-08-08T06:16:28;23.02;;;16.30;;
25824;SDS011;13658;44.534;18.694;2023-08-08T06:18:54;24.45;;;16.27;;
25824;SDS011;13658;44.534;18.694;2023-08-08T06:21:20;29.23;;;19.08;;
25824;SDS011;13658;44.534;18.694;2023-08-08T06:23:46;28.08;;;18.92;;
25824;SDS011;13658;44.534;18.694;2023-08-08T06:26:13;23.15;;;16.52;;
25824;SDS011;13658;44.534;18.694;2023-08-08T06:28:39;23.48;;;15.55;;
25824;SDS011;13658;44.534;18.694;2023-08-08T06:31:05;28.85;;;18.23;;
25824;SDS011;13658;44.534;18.694;2023-08-08T06:33:31;35.95;;;25.83;;
25824;SDS011;13658;44.534;18.694;2023-08-08T06:35:57;20.55;;;14.80;;
25824;SDS011;13658;44.534;18.694;2023-08-08T06:38:22;18.13;;;13.00;;
25824;SDS011;13658;44.534;18.694;2023-08-08T06:40:48;19.15;;;12.45;;
25824;SDS011;13658;44.534;18.694;2023-08-08T06:43:14;19.15;;;13.82;;
25824;SDS011;13658;44.534;18.694;2023-08-08T06:45:40;40.58;;;24.85;;
25824;SDS011;13658;44.534;18.694;2023-08-08T06:48:06;16.90;;;11.38;;
25824;SDS011;13658;44.534;18.694;2023-08-08T06:50:33;16.30;;;11.50;;
25824;SDS011;13658;44.534;18.694;2023-08-08T06:52:59;15.48;;;11.05;;
25824;SDS011;13658;44.534;18.694;2023-08-08T06:55:24;16.75;;;11.05;;
25824;SDS011;13658;44.534;18.694;2023-08-08T06:57:51;18.30;;;12.20;;
25824;SDS011;13658;44.534;18.694;2023-08-08T07:00:17;17.77;;;13.63;;
25824;SDS011;13658;44.534;18.694;2023-08-08T07:02:43;13.13;;;10.15;;
25824;SDS011;13658;44.534;18.694;2023-08-08T07:05:09;14.30;;;9.63;;
25824;SDS011;13658;44.534;18.694;2023-08-08T07:07:35;10.23;;;7.95;;
25824;SDS011;13658;44.534;18.694;2023-08-08T07:10:01;9.93;;;8.20;;
25824;SDS011;13658;44.534;18.694;2023-08-08T07:12:29;10.43;;;8.20;;
25824;SDS011;13658;44.534;18.694;2023-08-08T07:14:55;9.95;;;7.13;;
25824;SDS011;13658;44.534;18.694;2023-08-08T07:17:20;9.50;;;7.03;;
25824;SDS011;13658;44.534;18.694;2023-08-08T07:19:46;13.30;;;10.05;;
25824;SDS011;13658;44.534;18.694;2023-08-08T07:22:12;37.45;;;27.25;;
25824;SDS011;13658;44.534;18.694;2023-08-08T07:24:38;55.58;;;35.90;;
25824;SDS011;13658;44.534;18.694;2023-08-08T07:27:04;9.30;;;7.40;;
25824;SDS011;13658;44.534;18.694;2023-08-08T07:29:31;14.45;;;9.50;;
25824;SDS011;13658;44.534;18.694;2023-08-08T07:31:57;12.95;;;9.73;;
25824;SDS011;13658;44.534;18.694;2023-08-08T07:34:24;5.80;;;5.20;;
25824;SDS011;13658;44.534;18.694;2023-08-08T07:36:50;5.45;;;4.75;;
25824;SDS011;13658;44.534;18.694;2023-08-08T07:39:16;6.65;;;5.95;;
25824;SDS011;13658;44.534;18.694;2023-08-08T07:41:42;7.32;;;5.35;;
25824;SDS011;13658;44.534;18.694;2023-08-08T07:44:08;11.43;;;6.50;;
25824;SDS011;13658;44.534;18.694;2023-08-08T07:46:34;30.50;;;23.15;;
25824;SDS011;13658;44.534;18.694;2023-08-08T07:48:59;28.80;;;21.38;;
25824;SDS011;13658;44.534;18.694;2023-08-08T07:51:28;11.52;;;9.63;;
25824;SDS011;13658;44.534;18.694;2023-08-08T07:53:55;6.35;;;4.22;;
25824;SDS011;13658;44.534;18.694;2023-08-08T07:56:21;25.95;;;22.80;;
25824;SDS011;13658;44.534;18.694;2023-08-08T07:58:47;6.43;;;4.82;;
25824;SDS011;13658;44.534;18.694;2023-08-08T08:01:13;4.72;;;3.92;;
25824;SDS011;13658;44.534;18.694;2023-08-08T08:03:39;30.60;;;23.25;;
25824;SDS011;13658;44.534;18.694;2023-08-08T08:06:05;12.40;;;9.70;;
25824;SDS011;13658;44.534;18.694;2023-08-08T08:08:32;5.90;;;3.83;;
25824;SDS011;13658;44.534;18.694;2023-08-08T08:10:58;3.03;;;2.55;;
25824;SDS011;13658;44.534;18.694;2023-08-08T08:13:24;7.18;;;5.95;;
25824;SDS011;13658;44.534;18.694;2023-08-08T08:15:50;46.08;;;39.08;;
25824;SDS011;13658;44.534;18.694;2023-08-08T08:18:16;9.43;;;4.63;;
25824;SDS011;13658;44.534;18.694;2023-08-08T08:20:43;3.83;;;2.65;;
25824;SDS011;13658;44.534;18.694;2023-08-08T08:23:09;1.80;;;1.70;;
25824;SDS011;13658;44.534;18.694;2023-08-08T08:25:35;1.70;;;1.60;;
25824;SDS011;13658;44.534;18.694;2023-08-08T08:28:01;3.72;;;3.33;;
25824;SDS011;13658;44.534;18.694;2023-08-08T08:30:27;6.35;;;4.55;;
25824;SDS011;13658;44.534;18.694;2023-08-08T08:33:00;2.63;;;2.42;;
25824;SDS011;13658;44.534;18.694;2023-08-08T08:35:35;3.63;;;2.60;;
25824;SDS011;13658;44.534;18.694;2023-08-08T08:38:01;3.00;;;1.92;;
25824;SDS011;13658;44.534;18.694;2023-08-08T08:40:28;3.00;;;1.73;;
25824;SDS011;13658;44.534;18.694;2023-08-08T08:43:01;17.23;;;9.27;;
25824;SDS011;13658;44.534;18.694;2023-08-08T08:45:28;6.10;;;3.95;;
25824;SDS011;13658;44.534;18.694;2023-08-08T08:47:56;4.28;;;3.70;;
25824;SDS011;13658;44.534;18.694;2023-08-08T08:50:26;3.97;;;3.10;;
25824;SDS011;13658;44.534;18.694;2023-08-08T08:52:53;1.98;;;1.67;;
25824;SDS011;13658;44.534;18.694;2023-08-08T08:55:23;2.35;;;2.08;;
25824;SDS011;13658;44.534;18.694;2023-08-08T08:57:50;2.42;;;1.73;;
25824;SDS011;13658;44.534;18.694;2023-08-08T09:00:16;4.80;;;1.70;;
25824;SDS011;13658;44.534;18.694;2023-08-08T09:02:42;1.90;;;1.40;;
25824;SDS011;13658;44.534;18.694;2023-08-08T09:05:08;1.92;;;1.45;;
25824;SDS011;13658;44.534;18.694;2023-08-08T09:07:37;21.65;;;19.48;;
25824;SDS011;13658;44.534;18.694;2023-08-08T09:10:03;5.95;;;5.32;;
25824;SDS011;13658;44.534;18.694;2023-08-08T09:12:30;15.55;;;12.10;;
25824;SDS011;13658;44.534;18.694;2023-08-08T09:14:57;11.90;;;9.25;;
25824;SDS011;13658;44.534;18.694;2023-08-08T09:17:26;3.25;;;1.58;;
25824;SDS011;13658;44.534;18.694;2023-08-08T09:19:53;9.48;;;7.05;;
25824;SDS011;13658;44.534;18.694;2023-08-08T09:22:23;4.55;;;3.22;;
25824;SDS011;13658;44.534;18.694;2023-08-08T09:24:51;5.13;;;2.72;;
25824;SDS011;13658;44.534;18.694;2023-08-08T09:27:17;2.53;;;1.52;;
25824;SDS011;13658;44.534;18.694;2023-08-08T09:29:43;5.30;;;4.10;;
25824;SDS011;13658;44.534;18.694;2023-08-08T09:32:09;4.38;;;1.48;;
25824;SDS011;13658;44.534;18.694;2023-08-08T09:34:40;1.80;;;1.48;;
25824;SDS011;13658;44.534;18.694;2023-08-08T09:37:07;2.70;;;1.83;;
25824;SDS011;13658;44.534;18.694;2023-08-08T09:39:35;4.07;;;2.50;;
25824;SDS011;13658;44.534;18.694;2023-08-08T09:42:02;4.13;;;2.58;;
25824;SDS011;13658;44.534;18.694;2023-08-08T09:44:29;19.08;;;13.75;;
25824;SDS011;13658;44.534;18.694;2023-08-08T09:46:57;10.07;;;6.45;;
25824;SDS011;13658;44.534;18.694;2023-08-08T09:49:23;4.55;;;1.70;;
25824;SDS011;13658;44.534;18.694;2023-08-08T09:51:49;3.13;;;2.25;;
25824;SDS011;13658;44.534;18.694;2023-08-08T09:54:16;4.18;;;2.60;;
25824;SDS011;13658;44.534;18.694;2023-08-08T09:56:42;2.15;;;1.83;;
25824;SDS011;13658;44.534;18.694;2023-08-08T09:59:09;6.90;;;2.13;;
25824;SDS011;13658;44.534;18.694;2023-08-08T10:01:36;2.85;;;1.60;;
25824;SDS011;13658;44.534;18.694;2023-08-08T10:04:04;2.60;;;1.52;;
25824;SDS011;13658;44.534;18.694;2023-08-08T10:06:32;2.53;;;1.38;;
25824;SDS011;13658;44.534;18.694;2023-08-08T10:08:58;1.45;;;1.33;;
25824;SDS011;13658;44.534;18.694;2023-08-08T10:11:26;3.05;;;1.42;;
25824;SDS011;13658;44.534;18.694;2023-08-08T10:13:54;6.72;;;4.82;;
25824;SDS011;13658;44.534;18.694;2023-08-08T10:16:20;4.40;;;3.28;;
25824;SDS011;13658;44.534;18.694;2023-08-08T10:19:00;4.93;;;1.63;;
25824;SDS011;13658;44.534;18.694;2023-08-08T10:21:31;12.25;;;8.73;;
25824;SDS011;13658;44.534;18.694;2023-08-08T10:24:06;5.25;;;3.75;;
25824;SDS011;13658;44.534;18.694;2023-08-08T10:26:57;10.55;;;7.40;;
25824;SDS011;13658;44.534;18.694;2023-08-08T10:29:27;12.90;;;11.45;;
25824;SDS011;13658;44.534;18.694;2023-08-08T10:32:05;1.90;;;1.10;;
25824;SDS011;13658;44.534;18.694;2023-08-08T10:34:42;5.40;;;3.90;;
25824;SDS011;13658;44.534;18.694;2023-08-08T10:39:38;6.68;;;5.35;;
25824;SDS011;13658;44.534;18.694;2023-08-08T10:42:19;3.20;;;2.90;;
25824;SDS011;13658;44.534;18.694;2023-08-08T10:44:52;1.58;;;1.48;;
25824;SDS011;13658;44.534;18.694;2023-08-08T10:47:25;3.25;;;1.88;;
25824;SDS011;13658;44.534;18.694;2023-08-08T10:50:03;2.47;;;1.75;;
25824;SDS011;13658;44.534;18.694;2023-08-08T10:52:29;3.35;;;1.60;;
25824;SDS011;13658;44.534;18.694;2023-08-08T10:54:56;2.95;;;1.60;;
25824;SDS011;13658;44.534;18.694;2023-08-08T10:57:25;6.22;;;1.80;;
25824;SDS011;13658;44.534;18.694;2023-08-08T10:59:52;2.63;;;1.92;;
25824;SDS011;13658;44.534;18.694;2023-08-08T11:02:19;3.10;;;2.25;;
25824;SDS011;13658;44.534;18.694;2023-08-08T11:04:48;3.78;;;2.03;;
25824;SDS011;13658;44.534;18.694;2023-08-08T11:07:15;2.65;;;2.05;;
25824;SDS011;13658;44.534;18.694;2023-08-08T11:09:41;5.60;;;3.35;;
25824;SDS011;13658;44.534;18.694;2023-08-08T11:12:14;5.00;;;3.60;;
25824;SDS011;13658;44.534;18.694;2023-08-08T11:14:41;6.68;;;3.45;;
25824;SDS011;13658;44.534;18.694;2023-08-08T11:17:07;4.65;;;2.30;;
25824;SDS011;13658;44.534;18.694;2023-08-08T11:19:38;2.47;;;2.08;;
25824;SDS011;13658;44.534;18.694;2023-08-08T11:22:08;2.50;;;1.85;;
25824;SDS011;13658;44.534;18.694;2023-08-08T11:24:38;3.38;;;1.90;;
25824;SDS011;13658;44.534;18.694;2023-08-08T11:27:04;20.55;;;15.82;;
25824;SDS011;13658;44.534;18.694;2023-08-08T11:29:30;2.55;;;1.70;;
25824;SDS011;13658;44.534;18.694;2023-08-08T11:31:57;2.05;;;1.20;;
25824;SDS011;13658;44.534;18.694;2023-08-08T11:34:25;34.15;;;24.10;;
25824;SDS011;13658;44.534;18.694;2023-08-08T11:36:51;10.57;;;6.45;;
25824;SDS011;13658;44.534;18.694;2023-08-08T11:39:17;19.70;;;17.65;;
25824;SDS011;13658;44.534;18.694;2023-08-08T11:41:43;41.40;;;27.73;;
25824;SDS011;13658;44.534;18.694;2023-08-08T11:44:10;2.60;;;1.65;;
25824;SDS011;13658;44.534;18.694;2023-08-08T11:46:45;4.15;;;3.22;;
25824;SDS011;13658;44.534;18.694;2023-08-08T11:49:13;3.47;;;2.53;;
25824;SDS011;13658;44.534;18.694;2023-08-08T11:51:42;3.00;;;1.92;;
25824;SDS011;13658;44.534;18.694;2023-08-08T11:54:08;2.72;;;1.70;;
25824;SDS011;13658;44.534;18.694;2023-08-08T11:56:35;2.60;;;2.28;;
25824;SDS011;13658;44.534;18.694;2023-08-08T11:59:02;1.85;;;1.30;;
25824;SDS011;13658;44.534;18.694;2023-08-08T12:01:30;7.88;;;4.00;;
25824;SDS011;13658;44.534;18.694;2023-08-08T12:03:58;2.33;;;1.33;;
25824;SDS011;13658;44.534;18.694;2023-08-08T12:06:29;2.42;;;1.30;;
25824;SDS011;13658;44.534;18.694;2023-08-08T12:08:55;1.70;;;1.30;;
25824;SDS011;13658;44.534;18.694;2023-08-08T12:11:21;1.52;;;1.27;;
25824;SDS011;13658;44.534;18.694;2023-08-08T12:13:47;5.32;;;4.53;;
25824;SDS011;13658;44.534;18.694;2023-08-08T12:16:13;13.60;;;7.82;;
25824;SDS011;13658;44.534;18.694;2023-08-08T12:18:40;8.18;;;5.60;;
25824;SDS011;13658;44.534;18.694;2023-08-08T12:21:07;2.20;;;1.25;;
25824;SDS011;13658;44.534;18.694;2023-08-08T12:23:34;4.00;;;3.08;;
25824;SDS011;13658;44.534;18.694;2023-08-08T12:26:02;3.35;;;1.63;;
25824;SDS011;13658;44.534;18.694;2023-08-08T12:28:33;14.63;;;13.05;;
25824;SDS011;13658;44.534;18.694;2023-08-08T12:31:00;2.22;;;1.95;;
25824;SDS011;13658;44.534;18.694;2023-08-08T12:33:26;7.55;;;4.47;;
25824;SDS011;13658;44.534;18.694;2023-08-08T12:35:53;3.25;;;1.83;;
25824;SDS011;13658;44.534;18.694;2023-08-08T12:38:18;4.18;;;1.40;;
25824;SDS011;13658;44.534;18.694;2023-08-08T12:40:45;1.38;;;1.27;;
25824;SDS011;13658;44.534;18.694;2023-08-08T12:43:11;1.63;;;1.25;;
25824;SDS011;13658;44.534;18.694;2023-08-08T12:45:44;8.82;;;7.45;;
25824;SDS011;13658;44.534;18.694;2023-08-08T12:48:11;3.65;;;2.65;;
25824;SDS011;13658;44.534;18.694;2023-08-08T12:50:37;3.70;;;1.90;;
25824;SDS011;13658;44.534;18.694;2023-08-08T12:53:04;2.83;;;1.90;;
25824;SDS011;13658;44.534;18.694;2023-08-08T12:55:30;14.13;;;10.27;;
25824;SDS011;13658;44.534;18.694;2023-08-08T12:57:56;8.88;;;6.20;;
25824;SDS011;13658;44.534;18.694;2023-08-08T13:00:22;23.77;;;16.40;;
25824;SDS011;13658;44.534;18.694;2023-08-08T13:02:48;5.18;;;2.78;;
25824;SDS011;13658;44.534;18.694;2023-08-08T13:05:14;12.98;;;8.75;;
25824;SDS011;13658;44.534;18.694;2023-08-08T13:07:40;10.43;;;5.93;;
25824;SDS011;13658;44.534;18.694;2023-08-08T13:10:07;4.10;;;2.53;;
25824;SDS011;13658;44.534;18.694;2023-08-08T13:12:33;2.08;;;1.58;;
25824;SDS011;13658;44.534;18.694;2023-08-08T13:14:59;43.83;;;25.92;;
25824;SDS011;13658;44.534;18.694;2023-08-08T13:17:25;7.25;;;6.10;;
25824;SDS011;13658;44.534;18.694;2023-08-08T13:19:51;21.90;;;12.68;;
25824;SDS011;13658;44.534;18.694;2023-08-08T13:22:17;7.38;;;5.60;;
25824;SDS011;13658;44.534;18.694;2023-08-08T13:24:43;7.57;;;4.72;;
25824;SDS011;13658;44.534;18.694;2023-08-08T13:27:09;7.22;;;4.68;;
25824;SDS011;13658;44.534;18.694;2023-08-08T13:29:35;2.10;;;1.23;;
25824;SDS011;13658;44.534;18.694;2023-08-08T13:32:01;3.63;;;2.00;;
25824;SDS011;13658;44.534;18.694;2023-08-08T13:34:27;10.13;;;6.50;;
25824;SDS011;13658;44.534;18.694;2023-08-08T13:36:53;43.92;;;6.57;;
25824;SDS011;13658;44.534;18.694;2023-08-08T13:39:19;2.22;;;1.42;;
25824;SDS011;13658;44.534;18.694;2023-08-08T13:41:45;4.53;;;2.88;;
25824;SDS011;13658;44.534;18.694;2023-08-08T13:44:11;18.27;;;12.18;;
25824;SDS011;13658;44.534;18.694;2023-08-08T13:46:37;14.98;;;10.45;;
25824;SDS011;13658;44.534;18.694;2023-08-08T13:49:03;4.82;;;3.78;;
25824;SDS011;13658;44.534;18.694;2023-08-08T13:51:30;1.95;;;1.75;;
25824;SDS011;13658;44.534;18.694;2023-08-08T13:53:56;3.42;;;1.80;;
25824;SDS011;13658;44.534;18.694;2023-08-08T13:56:21;3.85;;;2.63;;
25824;SDS011;13658;44.534;18.694;2023-08-08T13:58:48;3.63;;;1.80;;
25824;SDS011;13658;44.534;18.694;2023-08-08T14:01:14;9.10;;;5.50;;
25824;SDS011;13658;44.534;18.694;2023-08-08T14:03:40;5.82;;;4.38;;
25824;SDS011;13658;44.534;18.694;2023-08-08T14:06:06;3.33;;;2.35;;
25824;SDS011;13658;44.534;18.694;2023-08-08T14:08:32;2.90;;;1.95;;
25824;SDS011;13658;44.534;18.694;2023-08-08T14:10:58;2.95;;;1.98;;
25824;SDS011;13658;44.534;18.694;2023-08-08T14:13:24;24.00;;;14.57;;
25824;SDS011;13658;44.534;18.694;2023-08-08T14:15:50;3.28;;;2.53;;
25824;SDS011;13658;44.534;18.694;2023-08-08T14:18:17;3.65;;;3.13;;
25824;SDS011;13658;44.534;18.694;2023-08-08T14:20:43;2.13;;;1.90;;
25824;SDS011;13658;44.534;18.694;2023-08-08T14:23:09;2.42;;;2.05;;
25824;SDS011;13658;44.534;18.694;2023-08-08T14:25:35;2.50;;;2.30;;
25824;SDS011;13658;44.534;18.694;2023-08-08T14:28:01;5.32;;;3.97;;
25824;SDS011;13658;44.534;18.694;2023-08-08T14:30:29;7.63;;;5.53;;
25824;SDS011;13658;44.534;18.694;2023-08-08T14:32:55;4.00;;;2.30;;
25824;SDS011;13658;44.534;18.694;2023-08-08T14:35:22;3.53;;;2.08;;